createdAt,value
2019-02-15T00:00:59.949Z,25.77
2019-02-15T00:02:01.061Z,25.80
2019-02-15T00:03:02.676Z,25.81
2019-02-15T00:04:03.905Z,25.78
2019-02-15T00:05:05.729Z,25.87
2019-02-15T00:06:06.845Z,25.89
2019-02-15T00:07:07.963Z,25.89
2019-02-15T00:08:09.078Z,25.87
2019-02-15T00:09:10.499Z,25.87
2019-02-15T00:10:11.732Z,25.85
2019-02-15T00:11:12.845Z,25.80
2019-02-15T00:12:13.959Z,25.81
2019-02-15T00:13:15.072Z,25.83
2019-02-15T00:14:16.303Z,25.82
2019-02-15T00:15:17.561Z,25.79
2019-02-15T00:16:18.673Z,25.83
2019-02-15T00:17:24.313Z,25.86
2019-02-15T00:18:32.985Z,25.85
2019-02-15T00:19:38.803Z,25.80
2019-02-15T00:20:47.509Z,25.75
2019-02-15T00:21:48.709Z,25.79
2019-02-15T00:22:49.824Z,25.79
2019-02-15T00:23:51.055Z,25.91
2019-02-15T00:24:52.174Z,25.95
2019-02-15T00:25:53.410Z,25.95
2019-02-15T00:26:54.524Z,25.96
2019-02-15T00:27:55.643Z,25.90
2019-02-15T00:28:56.762Z,25.86
2019-02-15T00:29:57.880Z,25.92
2019-02-15T00:30:59.108Z,25.94
2019-02-15T00:32:00.225Z,25.93
2019-02-15T00:33:01.450Z,25.91
2019-02-15T00:34:02.671Z,25.91
2019-02-15T00:35:03.877Z,25.94
2019-02-15T00:36:05.219Z,25.95
2019-02-15T00:37:06.337Z,25.99
2019-02-15T00:38:07.454Z,25.95
2019-02-15T00:39:08.673Z,25.94
2019-02-15T00:40:09.801Z,25.93
2019-02-15T00:41:11.022Z,25.96
2019-02-15T00:42:12.141Z,25.95
2019-02-15T00:43:21.930Z,25.96
2019-02-15T00:44:16.285Z,25.91
2019-02-15T00:45:19.313Z,25.93
2019-02-15T00:46:28.316Z,26.00
2019-02-15T00:47:37.225Z,26.05
2019-02-15T00:48:38.353Z,25.96
2019-02-15T00:49:41.381Z,25.96
2019-02-15T00:50:50.637Z,25.99
2019-02-15T00:51:53.672Z,26.07
2019-02-15T00:52:56.693Z,26.07
2019-02-15T00:54:02.255Z,26.02
2019-02-15T00:55:22.747Z,26.08
2019-02-15T00:56:31.544Z,26.11
2019-02-15T00:57:46.527Z,26.06
2019-02-15T00:58:55.558Z,26.06
2019-02-15T01:00:13.881Z,26.07
2019-02-15T01:01:16.902Z,26.11
2019-02-15T01:02:22.725Z,26.10
2019-02-15T01:03:42.128Z,26.09
2019-02-15T01:05:00.174Z,26.13
2019-02-15T01:06:09.384Z,26.13
2019-02-15T01:07:21.229Z,26.11
2019-02-15T01:08:24.253Z,26.14
2019-02-15T01:09:30.240Z,26.13
2019-02-15T01:10:38.918Z,26.15
2019-02-15T01:11:44.465Z,26.16
2019-02-15T01:12:47.485Z,26.16
2019-02-15T01:13:48.602Z,26.17
2019-02-15T01:14:49.741Z,26.17
2019-02-15T01:15:50.869Z,26.17
2019-02-15T01:16:52.016Z,26.13
2019-02-15T01:17:53.137Z,26.08
2019-02-15T01:18:54.256Z,26.11
2019-02-15T01:19:55.493Z,26.10
2019-02-15T01:20:56.709Z,26.13
2019-02-15T01:21:57.825Z,26.08
2019-02-15T01:22:58.953Z,26.06
2019-02-15T01:24:00.069Z,26.13
2019-02-15T01:25:01.330Z,26.12
2019-02-15T01:26:04.350Z,26.03
2019-02-15T01:27:16.152Z,26.09
2019-02-15T01:28:21.978Z,26.10
2019-02-15T01:29:24.999Z,26.13
2019-02-15T01:30:37.383Z,26.16
2019-02-15T01:31:51.996Z,26.10
2019-02-15T01:32:57.835Z,26.11
2019-02-15T01:34:00.877Z,26.13
2019-02-15T01:35:06.691Z,26.05
2019-02-15T01:36:12.238Z,26.11
2019-02-15T01:37:15.268Z,26.19
2019-02-15T01:38:23.915Z,26.15
2019-02-15T01:39:29.536Z,26.16
2019-02-15T01:40:32.555Z,26.18
2019-02-15T01:41:50.416Z,26.16
2019-02-15T01:43:09.736Z,26.15
2019-02-15T01:44:12.765Z,26.11
2019-02-15T01:45:18.339Z,26.15
2019-02-15T01:46:26.935Z,26.13
2019-02-15T01:47:28.376Z,26.13
2019-02-15T01:48:29.607Z,26.16
2019-02-15T01:49:30.714Z,26.22
2019-02-15T01:50:31.869Z,26.22
2019-02-15T01:51:33.093Z,26.21
2019-02-15T01:52:34.222Z,26.20
2019-02-15T01:53:35.445Z,26.30
2019-02-15T01:54:36.661Z,26.27
2019-02-15T01:55:37.785Z,26.23
2019-02-15T01:56:38.905Z,26.27
2019-02-15T01:57:40.057Z,26.19
2019-02-15T01:58:41.182Z,26.17
2019-02-15T01:59:42.313Z,26.13
2019-02-15T02:00:43.534Z,26.16
2019-02-15T02:01:45.178Z,26.15
2019-02-15T02:02:46.313Z,26.13
2019-02-15T02:03:47.425Z,26.12
2019-02-15T02:04:48.545Z,26.09
2019-02-15T02:05:49.661Z,26.12
2019-02-15T02:06:50.782Z,26.10
2019-02-15T02:07:52.051Z,26.08
2019-02-15T02:08:53.178Z,26.13
2019-02-15T02:11:16.893Z,26.16
2019-02-15T02:12:18.031Z,26.09
2019-02-15T02:13:19.195Z,26.05
2019-02-15T02:14:20.412Z,26.03
2019-02-15T02:15:21.648Z,26.08
2019-02-15T02:16:22.764Z,26.08
2019-02-15T02:17:23.868Z,26.03
2019-02-15T02:18:25.111Z,26.05
2019-02-15T02:19:26.328Z,26.08
2019-02-15T02:20:27.442Z,26.07
2019-02-15T02:21:28.661Z,26.08
2019-02-15T02:22:29.883Z,26.04
2019-02-15T02:23:31.015Z,26.08
2019-02-15T02:24:32.138Z,26.06
2019-02-15T02:25:33.353Z,26.11
2019-02-15T02:26:34.469Z,26.07
2019-02-15T02:27:35.583Z,26.13
2019-02-15T02:28:36.841Z,26.10
2019-02-15T02:29:37.957Z,26.16
2019-02-15T02:30:39.071Z,26.13
2019-02-15T02:31:40.183Z,26.09
2019-02-15T02:32:41.298Z,26.12
2019-02-15T02:33:42.457Z,26.15
2019-02-15T02:34:43.681Z,26.17
2019-02-15T02:35:44.797Z,26.19
2019-02-15T02:36:51.250Z,26.17
2019-02-15T02:37:52.425Z,26.14
2019-02-15T02:38:53.557Z,26.14
2019-02-15T02:39:54.676Z,26.20
2019-02-15T02:40:55.784Z,26.18
2019-02-15T02:41:56.897Z,26.15
2019-02-15T02:42:58.017Z,26.14
2019-02-15T02:43:59.964Z,26.15
2019-02-15T02:45:01.393Z,26.12
2019-02-15T02:46:02.498Z,26.14
2019-02-15T02:47:03.616Z,26.14
2019-02-15T02:48:06.196Z,26.15
2019-02-15T02:49:07.346Z,26.12
2019-02-15T02:50:08.460Z,26.15
2019-02-15T02:51:09.679Z,26.17
2019-02-15T02:52:10.794Z,26.12
2019-02-15T02:53:11.912Z,26.16
2019-02-15T02:54:13.141Z,26.17
2019-02-15T02:55:14.262Z,26.17
2019-02-15T02:56:15.508Z,26.13
2019-02-15T02:57:16.599Z,26.18
2019-02-15T02:58:17.713Z,26.14
2019-02-15T02:59:18.842Z,26.10
2019-02-15T03:00:19.957Z,26.07
2019-02-15T03:01:23.130Z,26.04
2019-02-15T03:02:24.318Z,26.05
2019-02-15T03:03:25.425Z,26.03
2019-02-15T03:04:26.649Z,26.09
2019-02-15T03:05:27.765Z,26.14
2019-02-15T03:06:28.881Z,26.16
2019-02-15T03:07:30.094Z,26.18
2019-02-15T03:08:31.212Z,26.15
2019-02-15T03:09:32.659Z,26.16
2019-02-15T03:10:33.857Z,26.15
2019-02-15T03:11:34.990Z,26.09
2019-02-15T03:12:36.097Z,26.10
2019-02-15T03:13:37.218Z,26.10
2019-02-15T03:14:38.345Z,26.14
2019-02-15T03:15:39.465Z,26.06
2019-02-15T03:16:40.684Z,26.09
2019-02-15T03:17:41.803Z,26.11
2019-02-15T03:18:42.921Z,26.08
2019-02-15T03:19:44.052Z,26.08
2019-02-15T03:20:45.175Z,26.11
2019-02-15T03:21:46.309Z,26.08
2019-02-15T03:22:47.413Z,26.12
2019-02-15T03:23:48.527Z,26.10
2019-02-15T03:24:49.658Z,26.12
2019-02-15T03:25:50.774Z,26.02
2019-02-15T03:26:51.895Z,26.00
2019-02-15T03:27:53.012Z,26.04
2019-02-15T03:28:54.125Z,26.07
2019-02-15T03:29:55.655Z,26.12
2019-02-15T03:30:56.839Z,26.05
2019-02-15T03:31:58.005Z,26.07
2019-02-15T03:32:59.120Z,26.11
2019-02-15T03:34:00.231Z,26.14
2019-02-15T03:35:01.546Z,26.08
2019-02-15T03:36:04.558Z,26.16
2019-02-15T03:37:07.615Z,26.22
2019-02-15T03:38:16.603Z,26.26
2019-02-15T03:39:31.699Z,26.17
2019-02-15T03:40:34.832Z,26.15
2019-02-15T03:41:36.057Z,26.18
2019-02-15T03:42:37.172Z,26.24
2019-02-15T03:43:38.336Z,26.21
2019-02-15T03:44:39.421Z,26.15
2019-02-15T03:45:40.649Z,26.21
2019-02-15T03:46:41.766Z,26.22
2019-02-15T03:47:42.983Z,26.30
2019-02-15T03:48:44.098Z,26.26
2019-02-15T03:49:45.233Z,26.27
2019-02-15T03:50:46.381Z,26.29
2019-02-15T03:51:47.495Z,26.21
2019-02-15T03:52:48.613Z,26.21
2019-02-15T03:53:49.728Z,26.21
2019-02-15T03:54:50.843Z,26.21
2019-02-15T03:55:51.994Z,26.20
2019-02-15T03:56:53.207Z,26.17
2019-02-15T03:57:54.426Z,26.22
2019-02-15T03:58:55.643Z,26.16
2019-02-15T03:59:56.869Z,26.18
2019-02-15T04:00:58.025Z,26.23
2019-02-15T04:01:59.133Z,26.15
2019-02-15T04:03:00.245Z,26.16
2019-02-15T04:04:01.366Z,26.13
2019-02-15T04:05:03.683Z,26.13
2019-02-15T04:06:05.069Z,26.14
2019-02-15T04:07:07.448Z,26.12
2019-02-15T04:08:08.558Z,26.08
2019-02-15T04:09:09.783Z,26.12
2019-02-15T04:10:10.910Z,26.11
2019-02-15T04:11:12.146Z,26.09
2019-02-15T04:12:13.365Z,26.12
2019-02-15T04:13:14.489Z,26.14
2019-02-15T04:14:15.719Z,26.16
2019-02-15T04:15:16.927Z,26.11
2019-02-15T04:16:18.100Z,26.12
2019-02-15T04:17:19.209Z,26.11
2019-02-15T04:18:20.320Z,26.15
2019-02-15T04:19:21.439Z,26.17
2019-02-15T04:20:22.664Z,26.14
2019-02-15T04:21:23.786Z,26.13
2019-02-15T04:22:24.902Z,26.20
2019-02-15T04:23:26.114Z,26.19
2019-02-15T04:24:27.231Z,26.25
2019-02-15T04:25:28.351Z,26.21
2019-02-15T04:26:29.506Z,26.21
2019-02-15T04:27:30.622Z,26.22
2019-02-15T04:28:31.741Z,26.26
2019-02-15T04:29:32.962Z,26.21
2019-02-15T04:30:34.091Z,26.21
2019-02-15T04:31:35.219Z,26.21
2019-02-15T04:32:36.336Z,26.21
2019-02-15T04:33:37.555Z,26.24
2019-02-15T04:34:38.671Z,26.24
2019-02-15T04:35:39.789Z,26.16
2019-02-15T04:36:40.945Z,26.19
2019-02-15T04:37:42.549Z,26.15
2019-02-15T04:38:43.762Z,26.21
2019-02-15T04:39:44.878Z,26.24
2019-02-15T04:40:45.998Z,26.25
2019-02-15T04:41:47.239Z,26.25
2019-02-15T04:42:48.366Z,26.25
2019-02-15T04:43:49.585Z,26.15
2019-02-15T04:44:50.822Z,26.17
2019-02-15T04:45:51.938Z,26.13
2019-02-15T04:46:53.070Z,26.19
2019-02-15T04:47:54.295Z,26.22
2019-02-15T04:48:55.512Z,26.21
2019-02-15T04:49:56.640Z,26.17
2019-02-15T04:50:57.752Z,26.13
2019-02-15T04:51:58.900Z,26.16
2019-02-15T04:53:02.951Z,26.19
2019-02-15T04:54:03.027Z,26.27
2019-02-15T04:55:05.036Z,26.24
2019-02-15T04:56:06.272Z,26.27
2019-02-15T04:57:07.497Z,26.23
2019-02-15T04:58:08.611Z,26.26
2019-02-15T04:59:09.731Z,26.33
2019-02-15T05:00:10.841Z,26.29
2019-02-15T05:01:11.958Z,26.23
2019-02-15T05:02:13.084Z,26.19
2019-02-15T05:03:14.204Z,26.20
2019-02-15T05:04:15.320Z,26.18
2019-02-15T05:05:16.537Z,26.21
2019-02-15T05:06:17.646Z,26.22
2019-02-15T05:07:18.900Z,26.19
2019-02-15T05:08:20.018Z,26.19
2019-02-15T05:09:21.299Z,26.17
2019-02-15T05:10:22.509Z,26.17
2019-02-15T05:11:23.635Z,26.20
2019-02-15T05:12:24.881Z,26.21
2019-02-15T05:13:25.993Z,26.19
2019-02-15T05:14:27.115Z,26.10
2019-02-15T05:15:28.234Z,26.16
2019-02-15T05:16:29.349Z,26.24
2019-02-15T05:17:30.482Z,26.20
2019-02-15T05:18:31.607Z,26.17
2019-02-15T05:19:32.725Z,26.18
2019-02-15T05:20:33.851Z,26.22
2019-02-15T05:21:34.972Z,26.27
2019-02-15T05:22:36.272Z,26.27
2019-02-15T05:23:37.388Z,26.21
2019-02-15T05:24:38.511Z,26.17
2019-02-15T05:25:39.624Z,26.20
2019-02-15T05:26:40.744Z,26.20
2019-02-15T05:27:41.906Z,26.23
2019-02-15T05:28:43.027Z,26.22
2019-02-15T05:29:44.158Z,26.20
2019-02-15T05:30:45.277Z,26.18
2019-02-15T05:31:46.502Z,26.17
2019-02-15T05:32:47.639Z,26.13
2019-02-15T05:33:48.750Z,26.13
2019-02-15T05:34:49.872Z,26.18
2019-02-15T05:35:50.997Z,26.18
2019-02-15T05:36:52.122Z,26.18
2019-02-15T05:37:53.346Z,26.19
2019-02-15T05:38:54.469Z,26.24
2019-02-15T05:39:57.503Z,26.19
2019-02-15T05:40:58.621Z,26.20
2019-02-15T05:41:59.748Z,26.22
2019-02-15T05:43:00.880Z,26.22
2019-02-15T05:44:02.135Z,26.28
2019-02-15T05:45:04.732Z,26.33
2019-02-15T05:46:06.062Z,26.36
2019-02-15T05:47:07.280Z,26.41
2019-02-15T05:48:08.418Z,26.48
2019-02-15T05:49:09.528Z,26.49
2019-02-15T05:50:10.636Z,26.49
2019-02-15T05:51:11.749Z,26.50
2019-02-15T05:52:12.875Z,26.50
2019-02-15T05:53:14.020Z,26.49
2019-02-15T05:54:15.247Z,26.47
2019-02-15T05:55:16.471Z,26.46
2019-02-15T05:56:17.586Z,26.44
2019-02-15T05:57:18.720Z,26.47
2019-02-15T05:58:19.844Z,26.48
2019-02-15T05:59:20.961Z,26.45
2019-02-15T06:00:22.186Z,26.47
2019-02-15T06:01:24.689Z,26.46
2019-02-15T06:02:25.803Z,26.47
2019-02-15T06:03:26.926Z,26.48
2019-02-15T06:04:28.038Z,26.54
2019-02-15T06:05:29.263Z,26.55
2019-02-15T06:06:30.377Z,26.64
2019-02-15T06:07:31.496Z,26.64
2019-02-15T06:08:32.624Z,26.54
2019-02-15T06:09:33.747Z,26.49
2019-02-15T06:10:34.863Z,26.45
2019-02-15T06:11:35.982Z,26.46
2019-02-15T06:12:37.230Z,26.42
2019-02-15T06:13:38.426Z,26.46
2019-02-15T06:14:39.525Z,26.38
2019-02-15T06:15:40.630Z,26.33
2019-02-15T06:16:41.753Z,26.29
2019-02-15T06:17:42.865Z,26.27
2019-02-15T06:18:43.998Z,26.22
2019-02-15T06:19:45.115Z,26.16
2019-02-15T06:20:46.327Z,26.11
2019-02-15T06:21:47.450Z,26.01
2019-02-15T06:22:48.673Z,25.94
2019-02-15T06:23:49.807Z,25.88
2019-02-15T06:24:50.921Z,25.80
2019-02-15T06:25:52.054Z,25.75
2019-02-15T06:26:53.158Z,25.63
2019-02-15T06:27:54.376Z,25.59
2019-02-15T06:28:55.509Z,25.50
2019-02-15T06:29:56.728Z,25.39
2019-02-15T06:30:57.890Z,25.32
2019-02-15T06:31:59.000Z,25.29
2019-02-15T06:33:00.117Z,25.19
2019-02-15T06:34:01.353Z,25.12
2019-02-15T06:35:02.567Z,25.01
2019-02-15T06:36:03.676Z,24.89
2019-02-15T06:37:04.789Z,24.86
2019-02-15T06:38:05.926Z,24.79
2019-02-15T06:39:07.233Z,24.72
2019-02-15T06:40:08.348Z,24.66
2019-02-15T06:41:09.465Z,24.59
2019-02-15T06:42:11.131Z,24.54
2019-02-15T06:43:12.243Z,24.48
2019-02-15T06:44:14.284Z,24.44
2019-02-15T06:45:24.023Z,24.37
2019-02-15T06:46:18.426Z,24.33
2019-02-15T06:47:19.536Z,24.25
2019-02-15T06:48:20.651Z,24.24
2019-02-15T06:49:21.887Z,24.19
2019-02-15T06:50:23.002Z,24.13
2019-02-15T06:51:24.119Z,24.06
2019-02-15T06:52:25.233Z,24.05
2019-02-15T06:53:26.348Z,23.97
2019-02-15T06:54:27.581Z,23.87
2019-02-15T06:55:28.803Z,23.83
2019-02-15T06:56:29.929Z,23.75
2019-02-15T06:57:31.052Z,23.73
2019-02-15T06:58:32.276Z,23.71
2019-02-15T06:59:38.304Z,23.68
2019-02-15T07:00:41.326Z,23.64
2019-02-15T07:01:44.349Z,23.59
2019-02-15T07:02:49.923Z,23.59
2019-02-15T07:03:52.936Z,23.56
2019-02-15T07:05:10.827Z,23.55
2019-02-15T07:06:11.940Z,23.57
2019-02-15T07:07:13.060Z,23.56
2019-02-15T07:08:14.175Z,23.49
2019-02-15T07:09:15.368Z,23.47
2019-02-15T07:10:16.520Z,23.44
2019-02-15T07:11:17.636Z,23.42
2019-02-15T07:12:18.768Z,23.41
2019-02-15T07:13:20.043Z,23.38
2019-02-15T07:14:21.260Z,23.36
2019-02-15T07:15:22.491Z,23.33
2019-02-15T07:16:23.715Z,23.31
2019-02-15T07:17:24.829Z,23.31
2019-02-15T07:18:25.940Z,23.25
2019-02-15T07:19:27.056Z,23.24
2019-02-15T07:20:28.185Z,23.23
2019-02-15T07:21:29.402Z,23.25
2019-02-15T07:22:30.545Z,23.25
2019-02-15T07:23:31.652Z,23.21
2019-02-15T07:24:32.770Z,23.20
2019-02-15T07:25:33.902Z,23.22
2019-02-15T07:26:35.018Z,23.20
2019-02-15T07:27:36.140Z,23.22
2019-02-15T07:28:37.239Z,23.16
2019-02-15T07:29:38.369Z,23.19
2019-02-15T07:30:39.495Z,23.17
2019-02-15T07:31:40.603Z,23.19
2019-02-15T07:32:41.813Z,23.20
2019-02-15T07:33:42.942Z,23.16
2019-02-15T07:34:44.060Z,23.14
2019-02-15T07:35:45.189Z,23.14
2019-02-15T07:36:47.832Z,23.20
2019-02-15T07:37:49.425Z,23.13
2019-02-15T07:38:50.532Z,23.13
2019-02-15T07:39:51.646Z,23.11
2019-02-15T07:40:52.779Z,23.11
2019-02-15T07:41:53.896Z,23.12
2019-02-15T07:42:55.091Z,23.14
2019-02-15T07:43:56.228Z,23.12
2019-02-15T07:44:57.366Z,23.18
2019-02-15T07:45:58.601Z,23.20
2019-02-15T07:46:59.712Z,23.23
2019-02-15T07:48:00.832Z,23.33
2019-02-15T07:49:01.944Z,23.33
2019-02-15T07:50:09.324Z,23.31
2019-02-15T07:51:10.461Z,23.32
2019-02-15T07:52:11.676Z,23.29
2019-02-15T07:53:12.792Z,23.26
2019-02-15T07:54:13.913Z,23.27
2019-02-15T07:55:15.030Z,23.25
2019-02-15T07:56:16.158Z,23.29
2019-02-15T07:57:17.274Z,23.29
2019-02-15T07:58:18.393Z,23.30
2019-02-15T07:59:19.506Z,23.31
2019-02-15T08:00:20.621Z,23.34
2019-02-15T08:01:21.752Z,23.29
2019-02-15T08:02:22.965Z,23.33
2019-02-15T08:03:24.080Z,23.33
2019-02-15T08:04:25.204Z,23.31
2019-02-15T08:05:26.411Z,23.33
2019-02-15T08:06:27.541Z,23.34
2019-02-15T08:07:28.661Z,23.39
2019-02-15T08:08:29.782Z,23.40
2019-02-15T08:09:30.898Z,23.43
2019-02-15T08:10:32.013Z,23.47
2019-02-15T08:11:33.141Z,23.46
2019-02-15T08:12:34.277Z,23.46
2019-02-15T08:13:35.516Z,23.53
2019-02-15T08:14:36.637Z,23.54
2019-02-15T08:15:37.905Z,23.53
2019-02-15T08:16:39.129Z,23.57
2019-02-15T08:17:40.248Z,23.59
2019-02-15T08:18:41.405Z,23.61
2019-02-15T08:19:42.486Z,23.65
2019-02-15T08:20:43.601Z,23.68
2019-02-15T08:21:44.729Z,23.70
2019-02-15T08:22:45.944Z,23.66
2019-02-15T08:23:47.074Z,23.68
2019-02-15T08:24:48.176Z,23.70
2019-02-15T08:25:49.403Z,23.67
2019-02-15T08:26:50.528Z,23.69
2019-02-15T08:27:51.650Z,23.75
2019-02-15T08:28:52.757Z,23.76
2019-02-15T08:29:53.876Z,23.77
2019-02-15T08:30:54.993Z,23.78
2019-02-15T08:31:56.118Z,23.86
2019-02-15T08:32:57.232Z,23.92
2019-02-15T08:33:58.348Z,23.95
2019-02-15T08:34:59.468Z,24.11
2019-02-15T08:36:00.589Z,24.33
2019-02-15T08:37:01.724Z,24.27
2019-02-15T08:38:02.837Z,24.20
2019-02-15T08:39:05.548Z,24.18
2019-02-15T08:40:08.967Z,24.17
2019-02-15T08:41:10.084Z,24.21
2019-02-15T08:42:11.240Z,24.25
2019-02-15T08:43:12.356Z,24.26
2019-02-15T08:44:13.473Z,24.29
2019-02-15T08:45:14.603Z,24.35
2019-02-15T08:46:15.862Z,24.41
2019-02-15T08:47:16.988Z,24.63
2019-02-15T08:48:18.114Z,24.70
2019-02-15T08:49:19.227Z,24.55
2019-02-15T08:50:20.349Z,24.45
2019-02-15T08:51:21.553Z,24.36
2019-02-15T08:52:22.688Z,24.43
2019-02-15T08:53:23.816Z,24.56
2019-02-15T08:54:24.933Z,24.62
2019-02-15T08:55:26.155Z,24.66
2019-02-15T08:56:27.390Z,24.71
2019-02-15T08:57:28.493Z,24.80
2019-02-15T08:58:29.720Z,24.81
2019-02-15T08:59:30.837Z,24.84
2019-02-15T09:00:31.960Z,24.86
2019-02-15T09:01:33.173Z,24.93
2019-02-15T09:02:34.290Z,24.90
2019-02-15T09:03:35.421Z,24.94
2019-02-15T09:04:36.544Z,24.98
2019-02-15T09:05:37.760Z,24.97
2019-02-15T09:06:38.886Z,24.96
2019-02-15T09:07:39.983Z,24.94
2019-02-15T09:08:41.115Z,24.95
2019-02-15T09:09:42.234Z,24.88
2019-02-15T09:10:43.354Z,24.91
2019-02-15T09:11:44.474Z,24.97
2019-02-15T09:12:45.704Z,24.95
2019-02-15T09:13:46.979Z,24.90
2019-02-15T09:14:48.159Z,24.94
2019-02-15T09:15:49.376Z,24.94
2019-02-15T09:16:51.055Z,24.93
2019-02-15T09:17:52.199Z,24.94
2019-02-15T09:18:53.346Z,24.92
2019-02-15T09:19:54.465Z,24.96
2019-02-15T09:20:55.580Z,25.00
2019-02-15T09:21:56.814Z,25.01
2019-02-15T09:22:57.916Z,25.04
2019-02-15T09:23:59.049Z,25.07
2019-02-15T09:25:00.244Z,25.08
2019-02-15T09:26:01.380Z,25.11
2019-02-15T09:27:04.396Z,25.04
2019-02-15T09:28:23.903Z,24.97
2019-02-15T09:29:25.039Z,24.85
2019-02-15T09:30:26.256Z,24.78
2019-02-15T09:31:27.419Z,24.78
2019-02-15T09:32:28.534Z,24.74
2019-02-15T09:33:29.752Z,24.73
2019-02-15T09:34:30.876Z,24.73
2019-02-15T09:35:31.999Z,24.75
2019-02-15T09:36:33.104Z,24.72
2019-02-15T09:37:34.221Z,24.71
2019-02-15T09:38:35.334Z,24.69
2019-02-15T09:39:36.462Z,24.66
2019-02-15T09:40:37.688Z,24.65
2019-02-15T09:41:38.801Z,24.61
2019-02-15T09:42:39.914Z,24.60
2019-02-15T09:43:41.025Z,24.55
2019-02-15T09:44:42.192Z,24.56
2019-02-15T09:45:43.307Z,24.55
2019-02-15T09:46:44.425Z,24.50
2019-02-15T09:47:45.544Z,24.50
2019-02-15T09:48:46.668Z,24.48
2019-02-15T09:49:47.797Z,24.47
2019-02-15T09:50:48.916Z,24.48
2019-02-15T09:51:50.032Z,24.48
2019-02-15T09:52:51.144Z,24.49
2019-02-15T09:53:52.258Z,24.48
2019-02-15T09:54:53.388Z,24.48
2019-02-15T09:55:54.507Z,24.48
2019-02-15T09:56:55.620Z,24.49
2019-02-15T09:57:56.741Z,24.50
2019-02-15T09:58:57.856Z,24.47
2019-02-15T09:59:58.990Z,24.47
2019-02-15T10:01:00.101Z,24.47
2019-02-15T10:02:01.221Z,24.48
2019-02-15T10:03:02.334Z,24.50
2019-02-15T10:04:03.450Z,24.51
2019-02-15T10:05:06.079Z,24.51
2019-02-15T10:06:07.234Z,24.51
2019-02-15T10:07:08.314Z,24.53
2019-02-15T10:08:09.435Z,24.49
2019-02-15T10:09:10.658Z,24.51
2019-02-15T10:10:11.886Z,24.52
2019-02-15T10:11:13.002Z,24.56
2019-02-15T10:12:14.117Z,24.59
2019-02-15T10:13:15.245Z,24.60
2019-02-15T10:14:16.478Z,24.58
2019-02-15T10:15:17.611Z,24.60
2019-02-15T10:16:18.722Z,24.64
2019-02-15T10:17:19.840Z,24.63
2019-02-15T10:18:20.958Z,24.62
2019-02-15T10:19:22.790Z,24.63
2019-02-15T10:20:24.040Z,24.62
2019-02-15T10:21:25.250Z,24.62
2019-02-15T10:22:26.369Z,24.63
2019-02-15T10:23:27.490Z,24.63
2019-02-15T10:24:28.604Z,24.62
2019-02-15T10:25:29.853Z,24.66
2019-02-15T10:26:31.072Z,24.63
2019-02-15T10:27:32.194Z,24.64
2019-02-15T10:28:33.416Z,24.66
2019-02-15T10:29:34.532Z,24.65
2019-02-15T10:30:35.931Z,24.65
2019-02-15T10:31:37.053Z,24.63
2019-02-15T10:32:38.164Z,24.64
2019-02-15T10:33:39.391Z,24.65
2019-02-15T10:34:40.504Z,24.65
2019-02-15T10:35:41.743Z,24.64
2019-02-15T10:36:42.858Z,24.62
2019-02-15T10:37:44.007Z,24.60
2019-02-15T10:38:45.084Z,24.60
2019-02-15T10:39:46.356Z,24.61
2019-02-15T10:40:47.484Z,24.59
2019-02-15T10:41:48.600Z,24.57
2019-02-15T10:42:49.715Z,24.58
2019-02-15T10:43:50.833Z,24.57
2019-02-15T10:44:51.970Z,24.55
2019-02-15T10:45:53.174Z,24.55
2019-02-15T10:46:54.294Z,24.58
2019-02-15T10:47:55.404Z,24.54
2019-02-15T10:48:56.542Z,24.56
2019-02-15T10:49:57.640Z,24.55
2019-02-15T10:50:58.908Z,24.58
2019-02-15T10:52:00.518Z,24.56
2019-02-15T10:53:01.634Z,24.57
2019-02-15T10:54:02.742Z,24.59
2019-02-15T10:55:06.052Z,24.58
2019-02-15T10:56:07.182Z,24.58
2019-02-15T10:57:08.319Z,24.59
2019-02-15T10:58:09.405Z,24.58
2019-02-15T10:59:11.226Z,24.59
2019-02-15T11:00:18.645Z,24.61
2019-02-15T11:01:19.823Z,24.61
2019-02-15T11:02:20.940Z,24.63
2019-02-15T11:03:22.162Z,24.65
2019-02-15T11:04:23.380Z,24.66
2019-02-15T11:05:24.502Z,24.67
2019-02-15T11:06:25.741Z,24.68
2019-02-15T11:07:26.858Z,24.67
2019-02-15T11:08:28.078Z,24.69
2019-02-15T11:09:29.193Z,24.71
2019-02-15T11:10:31.904Z,24.71
2019-02-15T11:11:33.148Z,24.73
2019-02-15T11:12:34.267Z,24.71
2019-02-15T11:13:35.393Z,24.71
2019-02-15T11:14:36.634Z,24.73
2019-02-15T11:15:37.762Z,24.71
2019-02-15T11:16:46.951Z,24.73
2019-02-15T11:17:42.024Z,24.71
2019-02-15T11:18:43.133Z,24.74
2019-02-15T11:19:44.254Z,24.73
2019-02-15T11:20:45.373Z,24.73
2019-02-15T11:21:46.508Z,24.72
2019-02-15T11:22:48.089Z,24.74
2019-02-15T11:23:49.236Z,24.73
2019-02-15T11:24:50.358Z,24.71
2019-02-15T11:25:51.477Z,24.73
2019-02-15T11:26:52.717Z,24.71
2019-02-15T11:27:53.836Z,24.73
2019-02-15T11:28:54.949Z,24.73
2019-02-15T11:29:56.068Z,24.74
2019-02-15T11:30:57.181Z,24.75
2019-02-15T11:31:58.320Z,24.71
2019-02-15T11:32:59.441Z,24.71
2019-02-15T11:34:00.662Z,24.72
2019-02-15T11:35:01.881Z,24.71
2019-02-15T11:36:03.096Z,24.70
2019-02-15T11:37:04.239Z,24.70
2019-02-15T11:38:05.463Z,24.72
2019-02-15T11:39:06.671Z,24.73
2019-02-15T11:40:10.089Z,24.73
2019-02-15T11:41:11.565Z,24.70
2019-02-15T11:42:12.764Z,24.72
2019-02-15T11:43:15.124Z,24.75
2019-02-15T11:44:16.409Z,24.75
2019-02-15T11:45:17.529Z,24.74
2019-02-15T11:46:18.654Z,24.75
2019-02-15T11:47:19.777Z,24.75
2019-02-15T11:48:20.892Z,24.75
2019-02-15T11:49:22.008Z,24.79
2019-02-15T11:50:23.124Z,24.79
2019-02-15T11:51:24.248Z,24.80
2019-02-15T11:52:25.376Z,24.80
2019-02-15T11:53:26.493Z,24.82
2019-02-15T11:54:27.609Z,24.82
2019-02-15T11:55:28.926Z,24.83
2019-02-15T11:56:30.049Z,24.83
2019-02-15T11:57:31.294Z,24.84
2019-02-15T11:58:32.408Z,24.84
2019-02-15T11:59:33.525Z,24.86
2019-02-15T12:00:36.140Z,24.88
2019-02-15T12:01:37.265Z,24.89
2019-02-15T12:02:38.388Z,24.88
2019-02-15T12:03:39.616Z,24.88
2019-02-15T12:04:40.736Z,24.88
2019-02-15T12:05:41.858Z,24.89
2019-02-15T12:06:42.974Z,24.88
2019-02-15T12:07:44.109Z,24.96
2019-02-15T12:08:45.225Z,25.02
2019-02-15T12:09:46.342Z,25.06
2019-02-15T12:10:47.456Z,25.05
2019-02-15T12:11:48.576Z,25.04
2019-02-15T12:12:49.812Z,25.02
2019-02-15T12:13:50.945Z,25.03
2019-02-15T12:14:52.080Z,25.01
2019-02-15T12:15:53.199Z,25.00
2019-02-15T12:16:54.330Z,25.00
2019-02-15T12:17:55.448Z,24.99
2019-02-15T12:18:56.669Z,25.01
2019-02-15T12:19:57.784Z,24.99
2019-02-15T12:20:58.914Z,24.98
2019-02-15T12:22:00.127Z,24.98
2019-02-15T12:23:01.261Z,24.99
2019-02-15T12:24:02.477Z,24.98
2019-02-15T12:25:04.639Z,24.97
2019-02-15T12:26:06.234Z,24.95
2019-02-15T12:27:07.350Z,24.95
2019-02-15T12:28:08.479Z,24.93
2019-02-15T12:29:09.697Z,24.95
2019-02-15T12:30:12.417Z,24.93
2019-02-15T12:31:13.530Z,24.92
2019-02-15T12:32:14.766Z,24.92
2019-02-15T12:33:15.892Z,24.90
2019-02-15T12:34:17.016Z,24.92
2019-02-15T12:35:18.246Z,24.90
2019-02-15T12:36:19.355Z,24.91
2019-02-15T12:37:20.472Z,24.91
2019-02-15T12:38:21.604Z,24.90
2019-02-15T12:39:22.727Z,24.93
2019-02-15T12:40:23.841Z,24.92
2019-02-15T12:41:25.071Z,24.92
2019-02-15T12:42:26.206Z,24.92
2019-02-15T12:43:27.421Z,24.92
2019-02-15T12:44:28.552Z,24.93
2019-02-15T12:45:29.672Z,24.95
2019-02-15T12:46:30.794Z,24.94
2019-02-15T12:47:31.914Z,24.92
2019-02-15T12:48:33.047Z,24.92
2019-02-15T12:49:34.166Z,24.92
2019-02-15T12:50:35.283Z,24.93
2019-02-15T12:51:36.388Z,24.96
2019-02-15T12:52:37.507Z,24.97
2019-02-15T12:53:38.661Z,24.97
2019-02-15T12:54:39.889Z,24.98
2019-02-15T12:55:41.000Z,24.98
2019-02-15T12:56:42.120Z,24.99
2019-02-15T12:57:43.343Z,25.00
2019-02-15T12:58:44.474Z,25.01
2019-02-15T12:59:45.594Z,25.01
2019-02-15T13:00:46.816Z,25.02
2019-02-15T13:01:48.120Z,25.00
2019-02-15T13:02:49.344Z,25.02
2019-02-15T13:03:50.476Z,25.04
2019-02-15T13:04:51.596Z,25.05
2019-02-15T13:05:52.722Z,25.11
2019-02-15T13:06:53.946Z,25.08
2019-02-15T13:07:55.064Z,25.10
2019-02-15T13:08:56.361Z,25.12
2019-02-15T13:09:57.481Z,25.11
2019-02-15T13:10:58.696Z,25.10
2019-02-15T13:11:59.917Z,25.09
2019-02-15T13:13:01.034Z,25.08
2019-02-15T13:14:02.431Z,25.07
2019-02-15T13:15:05.256Z,25.14
2019-02-15T13:16:06.575Z,25.17
2019-02-15T13:17:07.814Z,25.28